sensor_id;sensor_type;location;lat;lon;timestamp;pressure;altitude;pressure_sealevel;temperature;humidity
42335;BME280;27986;42.700;24.178;2023-02-03T00:00:59;93893.53;;;0.77;88.47
42335;BME280;27986;42.700;24.178;2023-02-03T00:03:26;93913.88;;;0.83;87.31
42335;BME280;27986;42.700;24.178;2023-02-03T00:05:51;93925.44;;;1.19;86.60
42335;BME280;27986;42.700;24.178;2023-02-03T00:08:18;93930.63;;;1.26;84.69
42335;BME280;27986;42.700;24.178;2023-02-03T00:10:45;93899.03;;;1.14;83.89
42335;BME280;27986;42.700;24.178;2023-02-03T00:13:11;93913.81;;;1.29;83.69
42335;BME280;27986;42.700;24.178;2023-02-03T00:15:38;93941.13;;;1.31;84.39
42335;BME280;27986;42.700;24.178;2023-02-03T00:18:03;93900.00;;;0.93;84.43
42335;BME280;27986;42.700;24.178;2023-02-03T00:20:29;93909.56;;;1.10;83.56
42335;BME280;27986;42.700;24.178;2023-02-03T00:23:02;93912.44;;;1.16;84.05
42335;BME280;27986;42.700;24.178;2023-02-03T00:25:28;93932.38;;;1.14;84.93
42335;BME280;27986;42.700;24.178;2023-02-03T00:27:53;93913.72;;;0.78;86.60
42335;BME280;27986;42.700;24.178;2023-02-03T00:30:19;93923.28;;;0.95;86.90
42335;BME280;27986;42.700;24.178;2023-02-03T00:32:44;93938.09;;;1.10;85.66
42335;BME280;27986;42.700;24.178;2023-02-03T00:35:10;93947.19;;;1.20;84.78
42335;BME280;27986;42.700;24.178;2023-02-03T00:37:35;93932.97;;;1.27;85.21
42335;BME280;27986;42.700;24.178;2023-02-03T00:40:00;93946.84;;;1.36;80.96
42335;BME280;27986;42.700;24.178;2023-02-03T00:42:26;93938.22;;;1.16;67.64
42335;BME280;27986;42.700;24.178;2023-02-03T00:44:51;93917.38;;;1.30;71.81
42335;BME280;27986;42.700;24.178;2023-02-03T00:47:17;93909.19;;;1.35;76.69
42335;BME280;27986;42.700;24.178;2023-02-03T00:49:42;93950.94;;;1.68;78.00
42335;BME280;27986;42.700;24.178;2023-02-03T00:52:08;93932.84;;;1.73;78.03
42335;BME280;27986;42.700;24.178;2023-02-03T00:54:33;93928.56;;;1.63;70.14
42335;BME280;27986;42.700;24.178;2023-02-03T00:56:59;93925.31;;;1.64;73.00
42335;BME280;27986;42.700;24.178;2023-02-03T00:59:24;93917.59;;;1.68;63.98
42335;BME280;27986;42.700;24.178;2023-02-03T01:01:50;93934.16;;;1.96;59.07
42335;BME280;27986;42.700;24.178;2023-02-03T01:04:15;93936.47;;;1.97;58.37
42335;BME280;27986;42.700;24.178;2023-02-03T01:06:41;93937.22;;;1.98;58.14
42335;BME280;27986;42.700;24.178;2023-02-03T01:09:06;93921.69;;;1.82;57.11
42335;BME280;27986;42.700;24.178;2023-02-03T01:11:32;93915.34;;;1.82;57.45
42335;BME280;27986;42.700;24.178;2023-02-03T01:13:57;93911.03;;;1.81;57.73
42335;BME280;27986;42.700;24.178;2023-02-03T01:16:28;93903.03;;;1.74;57.48
42335;BME280;27986;42.700;24.178;2023-02-03T01:18:55;93955.81;;;1.83;57.63
42335;BME280;27986;42.700;24.178;2023-02-03T01:21:25;93927.94;;;1.59;57.39
42335;BME280;27986;42.700;24.178;2023-02-03T01:23:51;93907.91;;;1.55;58.30
42335;BME280;27986;42.700;24.178;2023-02-03T01:26:19;93917.19;;;1.52;57.78
42335;BME280;27986;42.700;24.178;2023-02-03T01:28:55;93931.63;;;1.65;58.91
42335;BME280;27986;42.700;24.178;2023-02-03T01:31:24;93913.94;;;1.53;58.83
42335;BME280;27986;42.700;24.178;2023-02-03T01:33:51;93944.72;;;1.74;59.03
42335;BME280;27986;42.700;24.178;2023-02-03T01:36:19;93933.13;;;1.75;59.08
42335;BME280;27986;42.700;24.178;2023-02-03T01:38:45;93928.31;;;1.85;58.66
42335;BME280;27986;42.700;24.178;2023-02-03T01:41:16;93916.13;;;1.82;59.07
42335;BME280;27986;42.700;24.178;2023-02-03T01:43:45;93938.31;;;1.91;58.11
42335;BME280;27986;42.700;24.178;2023-02-03T01:48:43;93911.78;;;1.39;58.92
42335;BME280;27986;42.700;24.178;2023-02-03T01:51:09;93928.91;;;1.47;59.70
42335;BME280;27986;42.700;24.178;2023-02-03T01:53:34;93918.28;;;1.45;59.19
42335;BME280;27986;42.700;24.178;2023-02-03T01:56:02;93947.25;;;1.62;59.61
42335;BME280;27986;42.700;24.178;2023-02-03T01:58:31;93929.22;;;1.49;60.60
42335;BME280;27986;42.700;24.178;2023-02-03T02:00:58;93964.25;;;1.55;60.56
42335;BME280;27986;42.700;24.178;2023-02-03T02:03:26;93950.63;;;1.66;60.44
42335;BME280;27986;42.700;24.178;2023-02-03T02:06:03;93945.41;;;1.50;59.86
42335;BME280;27986;42.700;24.178;2023-02-03T02:08:29;93902.41;;;1.27;60.70
42335;BME280;27986;42.700;24.178;2023-02-03T02:10:55;93927.19;;;1.49;60.16
42335;BME280;27986;42.700;24.178;2023-02-03T02:13:21;93924.44;;;1.40;60.21
42335;BME280;27986;42.700;24.178;2023-02-03T02:21:40;93940.19;;;1.52;59.19
42335;BME280;27986;42.700;24.178;2023-02-03T02:26:59;93905.66;;;1.17;59.38
42335;BME280;27986;42.700;24.178;2023-02-03T02:32:33;93987.25;;;1.56;62.39
42335;BME280;27986;42.700;24.178;2023-02-03T02:37:58;93982.63;;;1.44;63.39
42335;BME280;27986;42.700;24.178;2023-02-03T02:40:35;93982.19;;;1.36;63.18
42335;BME280;27986;42.700;24.178;2023-02-03T02:43:18;93956.72;;;1.37;63.72
42335;BME280;27986;42.700;24.178;2023-02-03T02:48:56;93971.66;;;1.40;67.27
42335;BME280;27986;42.700;24.178;2023-02-03T02:51:23;93992.63;;;1.68;62.79
42335;BME280;27986;42.700;24.178;2023-02-03T02:53:55;94011.16;;;1.62;59.42
42335;BME280;27986;42.700;24.178;2023-02-03T02:56:24;94005.28;;;1.51;59.70
42335;BME280;27986;42.700;24.178;2023-02-03T02:58:52;93998.53;;;1.52;60.22
42335;BME280;27986;42.700;24.178;2023-02-03T03:01:19;93973.56;;;0.97;71.73
42335;BME280;27986;42.700;24.178;2023-02-03T03:03:44;93992.34;;;0.66;78.58
42335;BME280;27986;42.700;24.178;2023-02-03T03:06:18;93997.38;;;0.40;83.07
42335;BME280;27986;42.700;24.178;2023-02-03T03:08:59;93989.84;;;0.49;74.52
42335;BME280;27986;42.700;24.178;2023-02-03T03:11:29;94000.09;;;0.98;74.57
42335;BME280;27986;42.700;24.178;2023-02-03T03:13:57;94005.16;;;0.81;79.98
42335;BME280;27986;42.700;24.178;2023-02-03T03:16:25;94019.97;;;0.97;81.99
42335;BME280;27986;42.700;24.178;2023-02-03T03:19:09;94007.63;;;0.89;82.45
42335;BME280;27986;42.700;24.178;2023-02-03T03:21:51;93992.34;;;0.66;84.42
42335;BME280;27986;42.700;24.178;2023-02-03T03:24:26;93999.25;;;0.52;87.49
42335;BME280;27986;42.700;24.178;2023-02-03T03:27:06;94033.69;;;0.82;88.30
42335;BME280;27986;42.700;24.178;2023-02-03T03:32:38;94016.41;;;0.78;87.73
42335;BME280;27986;42.700;24.178;2023-02-03T03:35:05;94026.75;;;0.87;87.76
42335;BME280;27986;42.700;24.178;2023-02-03T03:40:23;94047.75;;;1.15;87.14
42335;BME280;27986;42.700;24.178;2023-02-03T03:43:02;94047.28;;;1.17;86.24
42335;BME280;27986;42.700;24.178;2023-02-03T03:45:32;94040.34;;;1.39;86.29
42335;BME280;27986;42.700;24.178;2023-02-03T03:48:02;94055.09;;;1.91;84.66
42335;BME280;27986;42.700;24.178;2023-02-03T03:50:33;94016.56;;;1.57;82.21
42335;BME280;27986;42.700;24.178;2023-02-03T03:53:03;94062.19;;;1.92;81.71
42335;BME280;27986;42.700;24.178;2023-02-03T03:55:32;94024.31;;;1.53;82.82
42335;BME280;27986;42.700;24.178;2023-02-03T03:58:15;94062.41;;;1.25;85.68
42335;BME280;27986;42.700;24.178;2023-02-03T04:00:43;94050.06;;;1.26;87.26
42335;BME280;27986;42.700;24.178;2023-02-03T04:03:14;94047.75;;;1.33;87.70
42335;BME280;27986;42.700;24.178;2023-02-03T04:05:40;93985.72;;;0.72;87.71
42335;BME280;27986;42.700;24.178;2023-02-03T04:08:06;94048.53;;;1.06;90.20
42335;BME280;27986;42.700;24.178;2023-02-03T04:10:37;94063.34;;;1.03;89.70
42335;BME280;27986;42.700;24.178;2023-02-03T04:13:04;94011.75;;;0.56;89.76
42335;BME280;27986;42.700;24.178;2023-02-03T04:15:30;94037.03;;;0.59;91.03
42335;BME280;27986;42.700;24.178;2023-02-03T04:17:56;94092.09;;;0.69;94.74
42335;BME280;27986;42.700;24.178;2023-02-03T04:20:22;94053.34;;;0.56;96.58
42335;BME280;27986;42.700;24.178;2023-02-03T04:22:48;94059.06;;;0.53;96.78
42335;BME280;27986;42.700;24.178;2023-02-03T04:25:14;94055.03;;;0.45;97.18
42335;BME280;27986;42.700;24.178;2023-02-03T04:27:39;94079.31;;;0.72;95.35
42335;BME280;27986;42.700;24.178;2023-02-03T04:30:05;94073.72;;;0.63;93.87
42335;BME280;27986;42.700;24.178;2023-02-03T04:32:32;94064.53;;;0.84;93.93
42335;BME280;27986;42.700;24.178;2023-02-03T04:35:00;94026.50;;;0.35;94.48
42335;BME280;27986;42.700;24.178;2023-02-03T04:37:26;94073.94;;;0.77;94.78
42335;BME280;27986;42.700;24.178;2023-02-03T04:39:55;94063.75;;;0.83;95.29
42335;BME280;27986;42.700;24.178;2023-02-03T04:42:21;94058.81;;;0.69;94.84
42335;BME280;27986;42.700;24.178;2023-02-03T04:44:47;94043.63;;;0.43;96.03
42335;BME280;27986;42.700;24.178;2023-02-03T04:47:12;94061.56;;;0.60;95.42
42335;BME280;27986;42.700;24.178;2023-02-03T04:49:38;94057.78;;;0.36;96.32
42335;BME280;27986;42.700;24.178;2023-02-03T04:52:04;94097.75;;;0.56;97.03
42335;BME280;27986;42.700;24.178;2023-02-03T04:54:30;94087.25;;;0.42;95.48
42335;BME280;27986;42.700;24.178;2023-02-03T04:56:55;94085.38;;;0.48;96.13
42335;BME280;27986;42.700;24.178;2023-02-03T04:59:21;94057.09;;;-0.09;98.91
42335;BME280;27986;42.700;24.178;2023-02-03T05:01:47;94037.47;;;-0.23;100.00
42335;BME280;27986;42.700;24.178;2023-02-03T05:04:12;94059.75;;;-0.05;99.58
42335;BME280;27986;42.700;24.178;2023-02-03T05:06:39;94099.28;;;0.17;100.00
42335;BME280;27986;42.700;24.178;2023-02-03T05:09:04;94099.34;;;0.26;99.55
42335;BME280;27986;42.700;24.178;2023-02-03T05:11:30;94076.41;;;0.04;100.00
42335;BME280;27986;42.700;24.178;2023-02-03T05:13:55;94055.53;;;-0.10;100.00
42335;BME280;27986;42.700;24.178;2023-02-03T05:16:21;94035.34;;;-0.19;100.00
42335;BME280;27986;42.700;24.178;2023-02-03T05:18:47;94075.22;;;0.14;99.77
42335;BME280;27986;42.700;24.178;2023-02-03T05:21:12;94075.84;;;0.09;99.20
42335;BME280;27986;42.700;24.178;2023-02-03T05:23:38;94091.88;;;0.14;100.00
42335;BME280;27986;42.700;24.178;2023-02-03T05:26:04;94096.63;;;0.14;100.00
42335;BME280;27986;42.700;24.178;2023-02-03T05:28:35;94084.72;;;0.04;100.00
42335;BME280;27986;42.700;24.178;2023-02-03T05:31:01;94075.06;;;0.09;100.00
42335;BME280;27986;42.700;24.178;2023-02-03T05:33:28;94075.16;;;-0.26;100.00
42335;BME280;27986;42.700;24.178;2023-02-03T05:35:54;94116.66;;;0.09;98.79
42335;BME280;27986;42.700;24.178;2023-02-03T05:38:20;94093.13;;;-0.09;98.12
42335;BME280;27986;42.700;24.178;2023-02-03T05:40:48;94115.50;;;-0.03;100.00
42335;BME280;27986;42.700;24.178;2023-02-03T05:43:33;94105.31;;;-0.06;100.00
42335;BME280;27986;42.700;24.178;2023-02-03T05:46:03;94081.22;;;-0.18;100.00
42335;BME280;27986;42.700;24.178;2023-02-03T05:48:29;94085.69;;;0.10;99.81
42335;BME280;27986;42.700;24.178;2023-02-03T05:50:55;94074.06;;;-0.07;99.18
42335;BME280;27986;42.700;24.178;2023-02-03T05:53:21;94119.22;;;0.03;98.73
42335;BME280;27986;42.700;24.178;2023-02-03T05:55:46;94098.66;;;-0.09;98.60
42335;BME280;27986;42.700;24.178;2023-02-03T05:58:13;94131.19;;;0.22;98.99
42335;BME280;27986;42.700;24.178;2023-02-03T06:00:38;94069.25;;;-0.15;97.69
42335;BME280;27986;42.700;24.178;2023-02-03T06:03:04;94080.50;;;-0.10;97.51
42335;BME280;27986;42.700;24.178;2023-02-03T06:05:31;94128.47;;;0.31;96.40
42335;BME280;27986;42.700;24.178;2023-02-03T06:07:57;94127.97;;;0.23;95.23
42335;BME280;27986;42.700;24.178;2023-02-03T06:10:23;94144.59;;;0.23;96.29
42335;BME280;27986;42.700;24.178;2023-02-03T06:12:49;94131.69;;;0.30;96.16
42335;BME280;27986;42.700;24.178;2023-02-03T06:15:15;94144.13;;;0.25;96.93
42335;BME280;27986;42.700;24.178;2023-02-03T06:17:47;94101.22;;;0.08;97.52
42335;BME280;27986;42.700;24.178;2023-02-03T06:20:14;94131.81;;;-0.05;98.12
42335;BME280;27986;42.700;24.178;2023-02-03T06:22:40;94121.22;;;-0.19;96.72
42335;BME280;27986;42.700;24.178;2023-02-03T06:25:06;94144.19;;;-0.19;95.58
42335;BME280;27986;42.700;24.178;2023-02-03T06:27:32;94147.97;;;0.18;95.82
42335;BME280;27986;42.700;24.178;2023-02-03T06:29:58;94138.31;;;0.63;92.78
42335;BME280;27986;42.700;24.178;2023-02-03T06:32:23;94103.47;;;0.62;90.54
42335;BME280;27986;42.700;24.178;2023-02-03T06:34:49;94140.06;;;1.47;95.71
42335;BME280;27986;42.700;24.178;2023-02-03T06:37:14;94095.06;;;2.64;94.55
42335;BME280;27986;42.700;24.178;2023-02-03T06:39:40;94100.50;;;3.87;87.01
42335;BME280;27986;42.700;24.178;2023-02-03T06:42:06;94129.94;;;5.06;80.70
42335;BME280;27986;42.700;24.178;2023-02-03T06:44:31;94087.78;;;3.23;67.33
42335;BME280;27986;42.700;24.178;2023-02-03T06:46:57;94151.91;;;3.86;74.60
42335;BME280;27986;42.700;24.178;2023-02-03T06:49:23;94157.13;;;4.32;65.17
42335;BME280;27986;42.700;24.178;2023-02-03T06:51:49;94167.00;;;3.31;68.60
42335;BME280;27986;42.700;24.178;2023-02-03T06:54:16;94153.78;;;3.65;75.56
42335;BME280;27986;42.700;24.178;2023-02-03T06:56:42;94169.91;;;4.23;70.93
42335;BME280;27986;42.700;24.178;2023-02-03T06:59:07;94178.88;;;4.42;71.09
42335;BME280;27986;42.700;24.178;2023-02-03T07:01:34;94151.34;;;4.50;69.33
42335;BME280;27986;42.700;24.178;2023-02-03T07:04:01;94170.88;;;5.44;68.25
42335;BME280;27986;42.700;24.178;2023-02-03T07:06:27;94135.88;;;5.69;64.28
42335;BME280;27986;42.700;24.178;2023-02-03T07:08:56;94138.91;;;6.06;57.99
42335;BME280;27986;42.700;24.178;2023-02-03T07:11:22;94177.28;;;5.65;55.90
42335;BME280;27986;42.700;24.178;2023-02-03T07:13:47;94170.03;;;3.66;63.47
42335;BME280;27986;42.700;24.178;2023-02-03T07:16:13;94131.31;;;3.21;65.68
42335;BME280;27986;42.700;24.178;2023-02-03T07:18:39;94141.63;;;2.63;65.10
42335;BME280;27986;42.700;24.178;2023-02-03T07:21:05;94155.97;;;2.19;67.78
42335;BME280;27986;42.700;24.178;2023-02-03T07:23:31;94174.94;;;2.39;69.91
42335;BME280;27986;42.700;24.178;2023-02-03T07:26:04;94185.50;;;2.77;69.77
42335;BME280;27986;42.700;24.178;2023-02-03T07:28:30;94203.75;;;3.21;68.47
42335;BME280;27986;42.700;24.178;2023-02-03T07:30:56;94214.66;;;3.00;68.96
42335;BME280;27986;42.700;24.178;2023-02-03T07:33:22;94178.09;;;2.74;67.39
42335;BME280;27986;42.700;24.178;2023-02-03T07:35:54;94177.81;;;3.05;67.73
42335;BME280;27986;42.700;24.178;2023-02-03T07:38:21;94207.38;;;3.36;66.66
42335;BME280;27986;42.700;24.178;2023-02-03T07:40:47;94206.47;;;3.63;64.97
42335;BME280;27986;42.700;24.178;2023-02-03T07:43:13;94204.06;;;3.94;64.91
42335;BME280;27986;42.700;24.178;2023-02-03T07:45:38;94182.38;;;3.75;63.56
42335;BME280;27986;42.700;24.178;2023-02-03T07:48:04;94197.69;;;2.89;63.34
42335;BME280;27986;42.700;24.178;2023-02-03T07:50:30;94227.50;;;2.37;62.29
42335;BME280;27986;42.700;24.178;2023-02-03T07:53:06;94171.28;;;1.78;64.83
42335;BME280;27986;42.700;24.178;2023-02-03T07:55:34;94204.19;;;1.80;66.60
42335;BME280;27986;42.700;24.178;2023-02-03T07:58:01;94219.19;;;2.19;64.24
42335;BME280;27986;42.700;24.178;2023-02-03T08:00:27;94212.97;;;2.15;63.21
42335;BME280;27986;42.700;24.178;2023-02-03T08:02:52;94185.78;;;1.91;61.22
42335;BME280;27986;42.700;24.178;2023-02-03T08:05:18;94228.13;;;1.86;59.78
42335;BME280;27986;42.700;24.178;2023-02-03T08:07:44;94244.34;;;1.79;61.46
42335;BME280;27986;42.700;24.178;2023-02-03T08:10:12;94238.09;;;1.47;61.92
42335;BME280;27986;42.700;24.178;2023-02-03T08:12:43;94238.88;;;1.57;63.45
42335;BME280;27986;42.700;24.178;2023-02-03T08:15:10;94249.44;;;1.80;60.63
42335;BME280;27986;42.700;24.178;2023-02-03T08:17:36;94230.56;;;1.75;63.36
42335;BME280;27986;42.700;24.178;2023-02-03T08:20:04;94233.22;;;2.15;63.60
42335;BME280;27986;42.700;24.178;2023-02-03T08:22:30;94261.03;;;1.97;64.56
42335;BME280;27986;42.700;24.178;2023-02-03T08:24:55;94253.59;;;1.85;61.93
42335;BME280;27986;42.700;24.178;2023-02-03T08:27:22;94236.59;;;1.64;60.04
42335;BME280;27986;42.700;24.178;2023-02-03T08:29:48;94192.97;;;1.34;59.88
42335;BME280;27986;42.700;24.178;2023-02-03T08:32:19;94187.78;;;1.63;63.00
42335;BME280;27986;42.700;24.178;2023-02-03T08:34:46;94221.31;;;1.69;59.19
42335;BME280;27986;42.700;24.178;2023-02-03T08:37:13;94236.47;;;1.86;59.18
42335;BME280;27986;42.700;24.178;2023-02-03T08:39:39;94270.59;;;1.87;58.96
42335;BME280;27986;42.700;24.178;2023-02-03T08:42:11;94257.59;;;1.75;59.63
42335;BME280;27986;42.700;24.178;2023-02-03T08:44:37;94204.25;;;1.39;58.77
42335;BME280;27986;42.700;24.178;2023-02-03T08:47:11;94244.75;;;1.68;61.52
42335;BME280;27986;42.700;24.178;2023-02-03T08:49:37;94216.66;;;1.57;62.20
42335;BME280;27986;42.700;24.178;2023-02-03T08:52:09;94252.22;;;2.35;63.14
42335;BME280;27986;42.700;24.178;2023-02-03T08:54:35;94187.00;;;2.18;59.42
42335;BME280;27986;42.700;24.178;2023-02-03T08:57:00;94247.13;;;2.61;59.25
42335;BME280;27986;42.700;24.178;2023-02-03T08:59:29;94199.78;;;2.52;59.48
42335;BME280;27986;42.700;24.178;2023-02-03T09:02:05;94153.47;;;2.21;57.84
42335;BME280;27986;42.700;24.178;2023-02-03T09:04:37;94231.47;;;2.64;57.67
42335;BME280;27986;42.700;24.178;2023-02-03T09:07:03;94189.78;;;2.18;56.25
42335;BME280;27986;42.700;24.178;2023-02-03T09:09:29;94216.66;;;2.48;58.08
42335;BME280;27986;42.700;24.178;2023-02-03T09:11:55;94216.06;;;2.17;58.72
42335;BME280;27986;42.700;24.178;2023-02-03T09:14:29;94239.69;;;2.49;59.14
42335;BME280;27986;42.700;24.178;2023-02-03T09:16:55;94277.28;;;2.53;58.87
42335;BME280;27986;42.700;24.178;2023-02-03T09:19:21;94221.78;;;2.41;59.30
42335;BME280;27986;42.700;24.178;2023-02-03T09:21:46;94168.50;;;1.87;57.84
42335;BME280;27986;42.700;24.178;2023-02-03T09:24:14;94258.81;;;2.74;58.52
42335;BME280;27986;42.700;24.178;2023-02-03T09:26:39;94234.03;;;2.95;56.74
42335;BME280;27986;42.700;24.178;2023-02-03T09:29:05;94248.72;;;3.04;55.13
42335;BME280;27986;42.700;24.178;2023-02-03T09:31:32;94233.97;;;3.46;54.31
42335;BME280;27986;42.700;24.178;2023-02-03T09:33:58;94226.34;;;3.80;53.83
42335;BME280;27986;42.700;24.178;2023-02-03T09:36:24;94249.81;;;3.97;52.06
42335;BME280;27986;42.700;24.178;2023-02-03T09:38:49;94221.19;;;3.63;52.83
42335;BME280;27986;42.700;24.178;2023-02-03T09:41:44;94262.72;;;4.09;52.54
42335;BME280;27986;42.700;24.178;2023-02-03T09:46:52;94215.28;;;3.04;52.75
42335;BME280;27986;42.700;24.178;2023-02-03T09:49:40;94250.75;;;3.28;52.42
42335;BME280;27986;42.700;24.178;2023-02-03T09:52:20;94213.47;;;2.83;53.19
42335;BME280;27986;42.700;24.178;2023-02-03T09:54:50;94245.34;;;2.91;53.72
42335;BME280;27986;42.700;24.178;2023-02-03T09:57:29;94238.78;;;3.13;55.16
42335;BME280;27986;42.700;24.178;2023-02-03T09:59:58;94199.94;;;3.09;52.13
42335;BME280;27986;42.700;24.178;2023-02-03T10:08:30;94234.31;;;4.35;50.21
42335;BME280;27986;42.700;24.178;2023-02-03T10:16:41;94203.34;;;4.62;47.53
42335;BME280;27986;42.700;24.178;2023-02-03T10:19:24;94215.75;;;5.35;46.29
42335;BME280;27986;42.700;24.178;2023-02-03T10:21:57;94211.81;;;5.62;47.13
42335;BME280;27986;42.700;24.178;2023-02-03T10:24:46;94212.63;;;5.48;45.72
42335;BME280;27986;42.700;24.178;2023-02-03T10:27:20;94211.38;;;5.49;45.83
42335;BME280;27986;42.700;24.178;2023-02-03T10:30:12;94206.13;;;5.21;43.78
42335;BME280;27986;42.700;24.178;2023-02-03T10:32:40;94174.53;;;4.86;44.60
42335;BME280;27986;42.700;24.178;2023-02-03T10:35:11;94200.09;;;4.64;48.80
42335;BME280;27986;42.700;24.178;2023-02-03T10:37:43;94195.09;;;4.14;47.17
42335;BME280;27986;42.700;24.178;2023-02-03T10:40:12;94219.22;;;4.03;48.26
42335;BME280;27986;42.700;24.178;2023-02-03T10:42:42;94190.78;;;4.13;50.21
42335;BME280;27986;42.700;24.178;2023-02-03T10:45:28;94188.69;;;4.23;49.59
42335;BME280;27986;42.700;24.178;2023-02-03T10:47:55;94167.53;;;3.92;46.48
42335;BME280;27986;42.700;24.178;2023-02-03T10:50:30;94225.84;;;4.44;47.78
42335;BME280;27986;42.700;24.178;2023-02-03T10:55:45;94215.28;;;4.77;44.76
42335;BME280;27986;42.700;24.178;2023-02-03T10:58:21;94166.00;;;4.74;46.18
42335;BME280;27986;42.700;24.178;2023-02-03T11:00:54;94198.84;;;4.65;46.50
42335;BME280;27986;42.700;24.178;2023-02-03T11:03:34;94156.06;;;4.29;45.37
42335;BME280;27986;42.700;24.178;2023-02-03T11:08:34;94217.31;;;4.77;46.90
42335;BME280;27986;42.700;24.178;2023-02-03T11:11:08;94182.56;;;4.63;46.45
42335;BME280;27986;42.700;24.178;2023-02-03T11:13:34;94210.69;;;4.89;46.32
42335;BME280;27986;42.700;24.178;2023-02-03T11:16:03;94194.97;;;4.62;47.19
42335;BME280;27986;42.700;24.178;2023-02-03T11:21:06;94114.56;;;4.66;47.09
42335;BME280;27986;42.700;24.178;2023-02-03T11:23:32;94130.81;;;4.97;45.25
42335;BME280;27986;42.700;24.178;2023-02-03T11:25:59;94097.84;;;5.01;45.12
42335;BME280;27986;42.700;24.178;2023-02-03T11:28:43;94164.69;;;5.75;43.19
42335;BME280;27986;42.700;24.178;2023-02-03T11:31:22;94160.72;;;5.82;45.39
42335;BME280;27986;42.700;24.178;2023-02-03T11:33:52;94176.03;;;5.66;42.99
42335;BME280;27986;42.700;24.178;2023-02-03T11:36:19;94090.31;;;4.58;43.68
42335;BME280;27986;42.700;24.178;2023-02-03T11:38:44;94108.81;;;4.55;43.95
42335;BME280;27986;42.700;24.178;2023-02-03T11:41:18;94143.72;;;4.95;44.64
42335;BME280;27986;42.700;24.178;2023-02-03T11:43:45;94143.06;;;5.20;42.86
42335;BME280;27986;42.700;24.178;2023-02-03T11:46:16;94154.59;;;4.93;42.66
42335;BME280;27986;42.700;24.178;2023-02-03T11:49:02;94054.50;;;4.41;42.15
42335;BME280;27986;42.700;24.178;2023-02-03T11:51:42;94170.09;;;4.94;42.04
42335;BME280;27986;42.700;24.178;2023-02-03T12:10:59;94154.31;;;4.61;42.79
42335;BME280;27986;42.700;24.178;2023-02-03T12:19:14;94107.72;;;3.70;51.67
42335;BME280;27986;42.700;24.178;2023-02-03T12:22:02;94104.22;;;3.84;48.55
42335;BME280;27986;42.700;24.178;2023-02-03T12:25:00;94079.13;;;3.84;45.39
42335;BME280;27986;42.700;24.178;2023-02-03T12:30:54;94100.16;;;3.85;48.82
42335;BME280;27986;42.700;24.178;2023-02-03T12:33:27;94094.19;;;3.62;52.70
42335;BME280;27986;42.700;24.178;2023-02-03T12:36:02;94093.66;;;3.88;53.68
42335;BME280;27986;42.700;24.178;2023-02-03T12:41:19;94047.75;;;3.74;53.59
42335;BME280;27986;42.700;24.178;2023-02-03T12:43:48;94033.81;;;3.35;53.27
42335;BME280;27986;42.700;24.178;2023-02-03T12:46:23;94087.25;;;3.34;53.29
42335;BME280;27986;42.700;24.178;2023-02-03T12:51:41;94053.41;;;3.02;54.27
42335;BME280;27986;42.700;24.178;2023-02-03T12:56:54;94059.63;;;3.21;53.46
42335;BME280;27986;42.700;24.178;2023-02-03T12:59:24;94126.41;;;3.78;52.84
42335;BME280;27986;42.700;24.178;2023-02-03T13:02:07;94137.69;;;3.84;51.44
42335;BME280;27986;42.700;24.178;2023-02-03T13:04:43;94142.34;;;3.63;53.17
42335;BME280;27986;42.700;24.178;2023-02-03T13:07:49;94097.19;;;3.74;53.04
42335;BME280;27986;42.700;24.178;2023-02-03T13:10:46;94119.13;;;3.81;53.61
42335;BME280;27986;42.700;24.178;2023-02-03T13:13:26;94114.81;;;3.94;53.04
42335;BME280;27986;42.700;24.178;2023-02-03T13:15:57;94062.34;;;3.54;52.88
42335;BME280;27986;42.700;24.178;2023-02-03T13:18:59;94096.56;;;3.70;52.71
42335;BME280;27986;42.700;24.178;2023-02-03T13:21:30;94052.09;;;3.36;52.83
42335;BME280;27986;42.700;24.178;2023-02-03T13:23:56;94065.78;;;3.25;53.65
42335;BME280;27986;42.700;24.178;2023-02-03T13:26:36;94095.63;;;3.73;54.21
42335;BME280;27986;42.700;24.178;2023-02-03T13:32:45;94091.75;;;3.55;54.51
42335;BME280;27986;42.700;24.178;2023-02-03T13:42:29;94104.22;;;3.45;54.32
42335;BME280;27986;42.700;24.178;2023-02-03T13:45:02;94106.19;;;3.30;54.68
42335;BME280;27986;42.700;24.178;2023-02-03T13:47:32;93990.28;;;2.51;54.26
42335;BME280;27986;42.700;24.178;2023-02-03T13:50:14;93964.41;;;2.36;53.96
42335;BME280;27986;42.700;24.178;2023-02-03T13:53:07;94083.94;;;3.21;53.36
42335;BME280;27986;42.700;24.178;2023-02-03T13:55:57;94036.28;;;2.71;54.01
42335;BME280;27986;42.700;24.178;2023-02-03T13:58:30;94079.66;;;2.87;53.43
42335;BME280;27986;42.700;24.178;2023-02-03T14:01:06;93985.81;;;2.21;53.68
42335;BME280;27986;42.700;24.178;2023-02-03T14:03:50;94082.69;;;2.65;54.10
42335;BME280;27986;42.700;24.178;2023-02-03T14:12:30;94091.78;;;2.74;53.44
42335;BME280;27986;42.700;24.178;2023-02-03T14:15:15;93975.91;;;1.87;52.46
42335;BME280;27986;42.700;24.178;2023-02-03T14:25:20;94120.41;;;2.66;50.23
42335;BME280;27986;42.700;24.178;2023-02-03T14:27:47;94078.59;;;2.42;50.54
42335;BME280;27986;42.700;24.178;2023-02-03T14:30:22;94010.03;;;2.30;50.05
42335;BME280;27986;42.700;24.178;2023-02-03T14:32:58;94120.00;;;2.91;49.60
42335;BME280;27986;42.700;24.178;2023-02-03T14:35:36;94097.25;;;2.93;50.59
42335;BME280;27986;42.700;24.178;2023-02-03T14:38:14;94100.69;;;2.88;51.28
42335;BME280;27986;42.700;24.178;2023-02-03T14:41:01;94038.41;;;2.43;50.21
42335;BME280;27986;42.700;24.178;2023-02-03T15:00:23;94040.88;;;2.41;48.72
42335;BME280;27986;42.700;24.178;2023-02-03T15:06:42;93990.19;;;2.04;48.74
42335;BME280;27986;42.700;24.178;2023-02-03T15:20:44;94113.03;;;2.63;47.33
42335;BME280;27986;42.700;24.178;2023-02-03T15:47:19;94097.78;;;1.61;52.35
42335;BME280;27986;42.700;24.178;2023-02-03T15:59:40;94028.59;;;0.90;55.66
42335;BME280;27986;42.700;24.178;2023-02-03T16:02:43;94072.44;;;1.31;55.16
42335;BME280;27986;42.700;24.178;2023-02-03T16:07:44;94009.50;;;1.10;53.63
42335;BME280;27986;42.700;24.178;2023-02-03T16:10:43;94074.00;;;1.69;53.23